Disney Magic — C6PT7 — position and weather

sailwx.info

Track history (hours):
 
Tides and Currents Weather Stations Pressure Air Temp Water Temp Dewpoint Dewpoint Depression Visibility Wind Speed Wind Dir Waves Ship Positions

Disney Magic

Last reported at 2020-Aug-09 05:23 UTC. Time now 2020-Aug-09 05:59 UTC.
Position N 51°07' E 001°19'.

Type: Passenger vessel. MMSI: 308516000.

Date/timePositionNaut miles runAvg speedWind from/ knotsBaromVisibWave heightAir tempDewpointWater temp
2020-Aug-09 05:23N 51°07' E 001°19'0 0.0
2020-Aug-09 04:29N 51°07' E 001°19'0 0.0
2020-Aug-08 23:23N 51°07' E 001°19'1 3.2
2020-Aug-08 23:00N 51°06' E 001°18'1 2.2 010 / 181021.3 5.4 21.012.819.0
2020-Aug-08 22:26N 51°07' E 001°19'0 0.0
2020-Aug-08 21:29N 51°07' E 001°19'0 0.0
2020-Aug-08 17:29N 51°07' E 001°19'0 0.0
2020-Aug-08 14:26N 51°07' E 001°19'0 0.0
2020-Aug-08 12:56N 51°07' E 001°19'0 0.0
2020-Aug-08 11:20N 51°07' E 001°19'0 0.0
2020-Aug-08 10:56N 51°07' E 001°19'0 0.0
2020-Aug-08 09:23N 51°07' E 001°19'0 0.0
2020-Aug-08 08:59N 51°07' E 001°19'0 0.0
2020-Aug-08 07:59N 51°07' E 001°19'0 0.0
2020-Aug-08 04:59N 51°07' E 001°19'0 0.0
2020-Aug-08 03:59N 51°07' E 001°19'0 0.0
2020-Aug-08 03:05N 51°07' E 001°19'0 0.0
2020-Aug-08 02:59N 51°07' E 001°19'0 0.0
2020-Aug-08 00:56N 51°07' E 001°19'0 0.0
2020-Aug-07 23:59N 51°07' E 001°19'1 1.3
2020-Aug-07 23:00N 51°06' E 001°18'1 1.2 050 / 61019.0 5.4 20.018.519.0
2020-Aug-07 21:59N 51°07' E 001°19'0 0.0
2020-Aug-07 19:29N 51°07' E 001°19'0 0.0
2020-Aug-07 17:29N 51°07' E 001°19'0 0.0
2020-Aug-07 16:29N 51°07' E 001°19'0 0.0
2020-Aug-07 13:59N 51°07' E 001°19'0 0.0
2020-Aug-07 12:59N 51°07' E 001°19'0 0.0
2020-Aug-07 12:26N 51°07' E 001°19'0 0.0
2020-Aug-07 10:23N 51°07' E 001°19'0 0.0
2020-Aug-07 09:59N 51°07' E 001°19'0 0.0
2020-Aug-07 06:29N 51°07' E 001°19'0 0.0
2020-Aug-07 04:59N 51°07' E 001°19'0 0.0
2020-Aug-07 04:29N 51°07' E 001°19'0 0.0
2020-Aug-07 03:59N 51°07' E 001°19'0 0.0
2020-Aug-07 03:29N 51°07' E 001°19'0 0.0
2020-Aug-07 00:59N 51°07' E 001°19'0 0.0
2020-Aug-06 23:20N 51°07' E 001°19'0 0.0
2020-Aug-06 21:29N 51°07' E 001°19'0 0.0
2020-Aug-06 19:59N 51°07' E 001°19'10 2.6
2020-Aug-06 16:00N 50°58' E 001°28'1010.3
2020-Aug-06 15:00N 50°48' E 001°24'2416.5 010 / 61020.310.8 20.013.515.0
2020-Aug-06 13:30N 50°31' E 000°56'12316.4
2020-Aug-06 06:00N 49°59' W 002°09'714.3
2020-Aug-06 05:30N 49°57' W 002°20'1413.8
2020-Aug-06 04:30N 49°53' W 002°41'713.5
2020-Aug-06 04:01N 49°51' W 002°51'4240.7
2020-Aug-06 04:00N 49°48' W 002°54'2311.3 060 / 15 5.4 17.015.415.0
2020-Aug-06 01:59N 49°35' W 003°23'913.2
2020-Aug-06 01:17N 49°30' W 003°34'3813.3
2020-Aug-05 22:25N 49°06' W 004°20'3614.2
2020-Aug-05 19:55N 48°44' W 005°03'615.4
2020-Aug-05 19:30N 48°40' W 005°10'2110.5
2020-Aug-05 17:30N 48°19' W 005°08'397772.1
2020-Aug-05 17:00N 48°12' E 004°48'370122.0 230 / 251014.6 2.2 17.013.715.0
2020-Aug-05 13:58N 48°23' W 004°27'0 0.0
2020-Aug-05 12:58N 48°23' W 004°27'0 0.0
2020-Aug-05 12:28N 48°23' W 004°27'0 0.0
2020-Aug-05 09:28N 48°23' W 004°27'1 0.2
2020-Aug-05 06:30N 48°22' W 004°28'18 8.8
2020-Aug-05 04:30N 48°16' W 004°52'26 6.6
2020-Aug-05 00:30N 48°31' W 005°24'16 7.9
2020-Aug-04 22:30N 48°43' W 005°08'13 8.8
2020-Aug-04 21:00N 48°52' W 004°53'8 8.3
2020-Aug-04 20:00N 48°57' W 004°43'24 8.1
2020-Aug-04 17:00N 49°13' W 004°15'323320.0
2020-Aug-04 16:00N 49°18' E 004°00'28857.3 230 / 151017.4 5.4 18.013.117.0
2020-Aug-04 10:58N 49°43' W 003°22'12 8.1
2020-Aug-04 09:28N 49°51' W 003°08'4 8.1
2020-Aug-04 08:59N 49°54' W 003°03'4 8.1
2020-Aug-04 08:30N 49°56' W 002°58'28 8.0
2020-Aug-04 05:00N 50°05' W 002°17'8 7.7
2020-Aug-04 04:00N 50°07' W 002°06'9 8.9
2020-Aug-04 03:00N 50°10' W 001°52'146143.8
2020-Aug-04 02:00N 51°12' E 001°36'10630.3 260 / 151019.0 5.4 16.010.816.0
2020-Aug-03 22:30N 50°22' W 000°51'37 7.5
2020-Aug-03 17:30N 50°33' E 000°05'8 7.9
2020-Aug-03 16:30N 50°35' E 000°17'1 2.2
2020-Aug-03 16:00N 50°36' E 000°18'714.4 220 / 201019.3 5.4 17.011.915.0
2020-Aug-03 15:30N 50°37' E 000°29'22 8.9
2020-Aug-03 13:00N 50°49' E 000°59'17 8.7
2020-Aug-03 11:00N 51°02' E 001°17'5 4.8
2020-Aug-03 09:58N 51°07' E 001°19'0 0.0
2020-Aug-03 09:28N 51°07' E 001°19'0 0.0
2020-Aug-03 08:58N 51°07' E 001°19'0 0.0
2020-Aug-03 06:58N 51°07' E 001°19'0 0.0
2020-Aug-03 05:28N 51°07' E 001°19'0 0.0
2020-Aug-03 04:28N 51°07' E 001°19'0 0.0
2020-Aug-03 03:28N 51°07' E 001°19'1 2.7
2020-Aug-03 03:00N 51°06' E 001°18'1 0.4 020 / 51018.3 5.4 17.011.915.0
2020-Aug-02 23:58N 51°07' E 001°19'0 0.0
2020-Aug-02 17:28N 51°07' E 001°19'0 0.0
2020-Aug-02 16:28N 51°07' E 001°19'0 0.0
2020-Aug-02 13:28N 51°07' E 001°19'0 0.0
2020-Aug-02 12:58N 51°07' E 001°19'0 0.0
2020-Aug-02 12:28N 51°07' E 001°19'0 0.0
2020-Aug-02 10:28N 51°07' E 001°19'0 0.0
2020-Aug-02 09:58N 51°07' E 001°19'1 0.4
2020-Aug-02 07:00N 51°06' E 001°18'1 2.4 300 / 151020.310.8 16.0 8.818.6
2020-Aug-02 06:28N 51°07' E 001°19'0 0.0
2020-Aug-02 04:58N 51°07' E 001°19'0 0.0
2020-Aug-02 04:28N 51°07' E 001°19'0 0.0
2020-Aug-02 03:58N 51°07' E 001°19'0 0.0
2020-Aug-02 02:58N 51°07' E 001°19'0 0.0
2020-Aug-02 01:58N 51°07' E 001°19'0 0.0
2020-Aug-02 00:58N 51°07' E 001°19'0 0.0
2020-Aug-01 22:28N 51°07' E 001°19'1 0.4
2020-Aug-01 19:00N 51°06' E 001°18'1 0.4 230 / 181015.710.8 18.014.818.8
2020-Aug-01 15:58N 51°07' E 001°19'1 1.3
2020-Aug-01 15:00N 51°06' E 001°18'1 1.2 240 / 26 5.4 19.014.215.0
2020-Aug-01 13:58N 51°07' E 001°19'0 0.0
2020-Aug-01 11:25N 51°07' E 001°19'0 0.0
2020-Aug-01 09:28N 51°07' E 001°19'1 0.5
2020-Aug-01 07:00N 51°06' E 001°18'1 0.8 240 / 101018.310.8 20.015.318.4
2020-Aug-01 05:28N 51°07' E 001°19'1 0.5
2020-Aug-01 03:00N 51°06' E 001°18'145.8 240 / 101016.3 5.4 18.014.816.0
2020-Aug-01 02:58N 51°07' E 001°19'0 0.0
2020-Aug-01 02:25N 51°07' E 001°19'0 0.0
2020-Aug-01 00:25N 51°07' E 001°19'0 0.0
2020-Jul-31 23:58N 51°07' E 001°19'0 0.0
2020-Jul-31 21:28N 51°07' E 001°19'0 0.0
2020-Jul-31 17:58N 51°07' E 001°19'0 0.0
2020-Jul-31 15:28N 51°07' E 001°19'1 2.7
2020-Jul-31 15:00N 51°06' E 001°18'1 0.4 060 / 101011.5 5.4 29.013.316.0
2020-Jul-31 11:59N 51°07' E 001°19'0 0.0
2020-Jul-31 09:44N 51°07' E 001°19'0 0.0
2020-Jul-31 06:24N 51°07' E 001°19'0 0.0
2020-Jul-31 05:50N 51°07' E 001°19'0 0.0
2020-Jul-31 04:50N 51°07' E 001°19'0 0.0
2020-Jul-31 03:56N 51°07' E 001°19'1 1.3
2020-Jul-31 03:00N 51°06' E 001°18'1 0.6 040 / 7 5.4 20.011.615.0
2020-Jul-31 00:59N 51°07' E 001°19'0 0.0
2020-Jul-31 00:26N 51°07' E 001°19'0 0.0
2020-Jul-30 22:29N 51°07' E 001°19'0 0.0
2020-Jul-30 21:23N 51°07' E 001°19'0 0.0
2020-Jul-30 20:29N 51°07' E 001°19'0 0.0
2020-Jul-30 19:29N 51°07' E 001°19'1 2.6
2020-Jul-30 19:00N 51°06' E 001°18'1 0.2 060 / 51019.310.8 22.012.118.8
2020-Jul-30 13:29N 51°07' E 001°19'0 0.0
2020-Jul-30 10:29N 51°07' E 001°19'0 0.0
2020-Jul-30 08:59N 51°07' E 001°19'0 0.0
2020-Jul-30 08:23N 51°07' E 001°19'1 0.9
2020-Jul-30 07:00N 51°06' E 001°18'1 1.2 220 / 91023.310.8 17.011.918.4
2020-Jul-30 05:56N 51°07' E 001°19'  
Track history (hours):
 
Tides and Currents Weather Stations Pressure Air Temp Water Temp Dewpoint Dewpoint Depression Visibility Wind Speed Wind Dir Waves Ship Positions

Disney Magic

Last reported at 2020-Aug-09 05:23 UTC. Time now 2020-Aug-09 05:59 UTC.
Position N 51°07' E 001°19'.

Type: Passenger vessel. MMSI: 308516000.

Date/timePositionNaut miles runAvg speedWind from/ knotsBaromVisibWave heightAir tempDewpointWater temp
2020-Aug-09 05:23N 51°07' E 001°19'0 0.0
2020-Aug-09 04:29N 51°07' E 001°19'0 0.0
2020-Aug-08 23:23N 51°07' E 001°19'1 3.2
2020-Aug-08 23:00N 51°06' E 001°18'1 2.2 010 / 181021.3 5.4 21.012.819.0
2020-Aug-08 22:26N 51°07' E 001°19'0 0.0
2020-Aug-08 21:29N 51°07' E 001°19'0 0.0
2020-Aug-08 17:29N 51°07' E 001°19'0 0.0
2020-Aug-08 14:26N 51°07' E 001°19'0 0.0
2020-Aug-08 12:56N 51°07' E 001°19'0 0.0
2020-Aug-08 11:20N 51°07' E 001°19'0 0.0
2020-Aug-08 10:56N 51°07' E 001°19'0 0.0
2020-Aug-08 09:23N 51°07' E 001°19'0 0.0
2020-Aug-08 08:59N 51°07' E 001°19'0 0.0
2020-Aug-08 07:59N 51°07' E 001°19'0 0.0
2020-Aug-08 04:59N 51°07' E 001°19'0 0.0
2020-Aug-08 03:59N 51°07' E 001°19'0 0.0
2020-Aug-08 03:05N 51°07' E 001°19'0 0.0
2020-Aug-08 02:59N 51°07' E 001°19'0 0.0
2020-Aug-08 00:56N 51°07' E 001°19'0 0.0
2020-Aug-07 23:59N 51°07' E 001°19'1 1.3
2020-Aug-07 23:00N 51°06' E 001°18'1 1.2 050 / 61019.0 5.4 20.018.519.0
2020-Aug-07 21:59N 51°07' E 001°19'0 0.0
2020-Aug-07 19:29N 51°07' E 001°19'0 0.0
2020-Aug-07 17:29N 51°07' E 001°19'0 0.0
2020-Aug-07 16:29N 51°07' E 001°19'0 0.0
2020-Aug-07 13:59N 51°07' E 001°19'0 0.0
2020-Aug-07 12:59N 51°07' E 001°19'0 0.0
2020-Aug-07 12:26N 51°07' E 001°19'0 0.0
2020-Aug-07 10:23N 51°07' E 001°19'0 0.0
2020-Aug-07 09:59N 51°07' E 001°19'0 0.0
2020-Aug-07 06:29N 51°07' E 001°19'0 0.0
2020-Aug-07 04:59N 51°07' E 001°19'0 0.0
2020-Aug-07 04:29N 51°07' E 001°19'0 0.0
2020-Aug-07 03:59N 51°07' E 001°19'0 0.0
2020-Aug-07 03:29N 51°07' E 001°19'0 0.0
2020-Aug-07 00:59N 51°07' E 001°19'0 0.0
2020-Aug-06 23:20N 51°07' E 001°19'0 0.0
2020-Aug-06 21:29N 51°07' E 001°19'0 0.0
2020-Aug-06 19:59N 51°07' E 001°19'10 2.6
2020-Aug-06 16:00N 50°58' E 001°28'1010.3
2020-Aug-06 15:00N 50°48' E 001°24'2416.5 010 / 61020.310.8 20.013.515.0
2020-Aug-06 13:30N 50°31' E 000°56'12316.4
2020-Aug-06 06:00N 49°59' W 002°09'714.3
2020-Aug-06 05:30N 49°57' W 002°20'1413.8
2020-Aug-06 04:30N 49°53' W 002°41'713.5
2020-Aug-06 04:01N 49°51' W 002°51'4240.7
2020-Aug-06 04:00N 49°48' W 002°54'2311.3 060 / 15 5.4 17.015.415.0
2020-Aug-06 01:59N 49°35' W 003°23'913.2
2020-Aug-06 01:17N 49°30' W 003°34'3813.3
2020-Aug-05 22:25N 49°06' W 004°20'3614.2
2020-Aug-05 19:55N 48°44' W 005°03'615.4
2020-Aug-05 19:30N 48°40' W 005°10'2110.5
2020-Aug-05 17:30N 48°19' W 005°08'397772.1
2020-Aug-05 17:00N 48°12' E 004°48'370122.0 230 / 251014.6 2.2 17.013.715.0
2020-Aug-05 13:58N 48°23' W 004°27'0 0.0
2020-Aug-05 12:58N 48°23' W 004°27'0 0.0
2020-Aug-05 12:28N 48°23' W 004°27'0 0.0
2020-Aug-05 09:28N 48°23' W 004°27'1 0.2
2020-Aug-05 06:30N 48°22' W 004°28'18 8.8
2020-Aug-05 04:30N 48°16' W 004°52'26 6.6
2020-Aug-05 00:30N 48°31' W 005°24'16 7.9
2020-Aug-04 22:30N 48°43' W 005°08'13 8.8
2020-Aug-04 21:00N 48°52' W 004°53'8 8.3
2020-Aug-04 20:00N 48°57' W 004°43'24 8.1
2020-Aug-04 17:00N 49°13' W 004°15'323320.0
2020-Aug-04 16:00N 49°18' E 004°00'28857.3 230 / 151017.4 5.4 18.013.117.0
2020-Aug-04 10:58N 49°43' W 003°22'12 8.1
2020-Aug-04 09:28N 49°51' W 003°08'4 8.1
2020-Aug-04 08:59N 49°54' W 003°03'4 8.1
2020-Aug-04 08:30N 49°56' W 002°58'28 8.0
2020-Aug-04 05:00N 50°05' W 002°17'8 7.7
2020-Aug-04 04:00N 50°07' W 002°06'9 8.9
2020-Aug-04 03:00N 50°10' W 001°52'146143.8
2020-Aug-04 02:00N 51°12' E 001°36'10630.3 260 / 151019.0 5.4 16.010.816.0
2020-Aug-03 22:30N 50°22' W 000°51'37 7.5
2020-Aug-03 17:30N 50°33' E 000°05'8 7.9
2020-Aug-03 16:30N 50°35' E 000°17'1 2.2
2020-Aug-03 16:00N 50°36' E 000°18'714.4 220 / 201019.3 5.4 17.011.915.0
2020-Aug-03 15:30N 50°37' E 000°29'22 8.9
2020-Aug-03 13:00N 50°49' E 000°59'17 8.7
2020-Aug-03 11:00N 51°02' E 001°17'5 4.8
2020-Aug-03 09:58N 51°07' E 001°19'0 0.0
2020-Aug-03 09:28N 51°07' E 001°19'0 0.0
2020-Aug-03 08:58N 51°07' E 001°19'0 0.0
2020-Aug-03 06:58N 51°07' E 001°19'0 0.0
2020-Aug-03 05:28N 51°07' E 001°19'0 0.0
2020-Aug-03 04:28N 51°07' E 001°19'0 0.0
2020-Aug-03 03:28N 51°07' E 001°19'1 2.7
2020-Aug-03 03:00N 51°06' E 001°18'1 0.4 020 / 51018.3 5.4 17.011.915.0
2020-Aug-02 23:58N 51°07' E 001°19'0 0.0
2020-Aug-02 17:28N 51°07' E 001°19'0 0.0
2020-Aug-02 16:28N 51°07' E 001°19'0 0.0
2020-Aug-02 13:28N 51°07' E 001°19'0 0.0
2020-Aug-02 12:58N 51°07' E 001°19'0 0.0
2020-Aug-02 12:28N 51°07' E 001°19'0 0.0
2020-Aug-02 10:28N 51°07' E 001°19'0 0.0
2020-Aug-02 09:58N 51°07' E 001°19'1 0.4
2020-Aug-02 07:00N 51°06' E 001°18'1 2.4 300 / 151020.310.8 16.0 8.818.6
2020-Aug-02 06:28N 51°07' E 001°19'0 0.0
2020-Aug-02 04:58N 51°07' E 001°19'0 0.0
2020-Aug-02 04:28N 51°07' E 001°19'0 0.0
2020-Aug-02 03:58N 51°07' E 001°19'0 0.0
2020-Aug-02 02:58N 51°07' E 001°19'0 0.0
2020-Aug-02 01:58N 51°07' E 001°19'0 0.0
2020-Aug-02 00:58N 51°07' E 001°19'0 0.0
2020-Aug-01 22:28N 51°07' E 001°19'1 0.4
2020-Aug-01 19:00N 51°06' E 001°18'1 0.4 230 / 181015.710.8 18.014.818.8
2020-Aug-01 15:58N 51°07' E 001°19'1 1.3
2020-Aug-01 15:00N 51°06' E 001°18'1 1.2 240 / 26 5.4 19.014.215.0
2020-Aug-01 13:58N 51°07' E 001°19'0 0.0
2020-Aug-01 11:25N 51°07' E 001°19'0 0.0
2020-Aug-01 09:28N 51°07' E 001°19'1 0.5
2020-Aug-01 07:00N 51°06' E 001°18'1 0.8 240 / 101018.310.8 20.015.318.4
2020-Aug-01 05:28N 51°07' E 001°19'1 0.5
2020-Aug-01 03:00N 51°06' E 001°18'145.8 240 / 101016.3 5.4 18.014.816.0
2020-Aug-01 02:58N 51°07' E 001°19'0 0.0
2020-Aug-01 02:25N 51°07' E 001°19'0 0.0
2020-Aug-01 00:25N 51°07' E 001°19'0 0.0
2020-Jul-31 23:58N 51°07' E 001°19'0 0.0
2020-Jul-31 21:28N 51°07' E 001°19'0 0.0
2020-Jul-31 17:58N 51°07' E 001°19'0 0.0
2020-Jul-31 15:28N 51°07' E 001°19'1 2.7
2020-Jul-31 15:00N 51°06' E 001°18'1 0.4 060 / 101011.5 5.4 29.013.316.0
2020-Jul-31 11:59N 51°07' E 001°19'0 0.0
2020-Jul-31 09:44N 51°07' E 001°19'0 0.0
2020-Jul-31 06:24N 51°07' E 001°19'0 0.0
2020-Jul-31 05:50N 51°07' E 001°19'0 0.0
2020-Jul-31 04:50N 51°07' E 001°19'0 0.0
2020-Jul-31 03:56N 51°07' E 001°19'1 1.3
2020-Jul-31 03:00N 51°06' E 001°18'1 0.6 040 / 7 5.4 20.011.615.0
2020-Jul-31 00:59N 51°07' E 001°19'0 0.0
2020-Jul-31 00:26N 51°07' E 001°19'0 0.0
2020-Jul-30 22:29N 51°07' E 001°19'0 0.0
2020-Jul-30 21:23N 51°07' E 001°19'0 0.0
2020-Jul-30 20:29N 51°07' E 001°19'0 0.0
2020-Jul-30 19:29N 51°07' E 001°19'1 2.6
2020-Jul-30 19:00N 51°06' E 001°18'1 0.2 060 / 51019.310.8 22.012.118.8
2020-Jul-30 13:29N 51°07' E 001°19'0 0.0
2020-Jul-30 10:29N 51°07' E 001°19'0 0.0
2020-Jul-30 08:59N 51°07' E 001°19'0 0.0
2020-Jul-30 08:23N 51°07' E 001°19'1 0.9
2020-Jul-30 07:00N 51°06' E 001°18'1 1.2 220 / 91023.310.8 17.011.918.4
2020-Jul-30 05:56N 51°07' E 001°19'  

Dump ship's entire track history